Time;durP1;ratioP1;P1;durP2;ratioP2;P2;SDS_P1;SDS_P2;PMS_P1;PMS_P2;Temp;Humidity;BMP_temperature;BMP_pressure;BME280_temperature;BME280_humidity;BME280_pressure;Samples;Min_cycle;Max_cycle;Signal;HPM_P1;HPM_P2
2022/09/22 00:00:32;;;;;;;0.60;0.60;;;10.60;99.90;11.70;102246.00;;;;5034576;28;20187;-69
2022/09/22 00:03:12;;;;;;;0.70;0.70;;;10.70;99.90;11.40;102251.00;;;;5035163;28;20207;-69
2022/09/22 00:05:49;;;;;;;0.60;0.60;;;10.70;99.90;11.00;102248.00;;;;5050770;28;20183;-69
2022/09/22 00:08:24;;;;;;;0.60;0.60;;;10.50;99.90;11.00;102252.00;;;;5035691;28;20183;-69
2022/09/22 00:11:12;;;;;;;0.70;0.70;;;10.30;99.90;11.20;102181.00;;;;5035716;28;20546;-69
2022/09/22 00:13:43;;;;;;;8.90;5.93;;;10.30;99.90;11.30;102250.00;;;;5035593;28;20321;-69
2022/09/22 00:16:16;;;;;;;0.70;0.70;;;10.60;99.90;11.30;102239.00;;;;5034072;28;20583;-68
2022/09/22 00:18:55;;;;;;;0.60;0.60;;;10.50;99.90;10.90;102235.00;;;;5050800;28;20169;-69
2022/09/22 00:21:31;;;;;;;0.70;0.70;;;10.30;99.90;11.10;102236.00;;;;5050349;28;20184;-69
2022/09/22 00:24:06;;;;;;;0.70;0.70;;;10.30;99.90;10.90;102230.00;;;;5050215;28;20503;-69
2022/09/22 00:26:42;;;;;;;0.73;0.73;;;10.20;99.90;10.90;102225.00;;;;5050258;28;20186;-69
2022/09/22 00:29:16;;;;;;;0.70;0.70;;;10.10;99.90;11.10;102231.00;;;;5034070;28;20214;-69
2022/09/22 00:31:48;;;;;;;0.70;0.70;;;10.20;99.90;11.20;102235.00;;;;5050278;28;20199;-69
2022/09/22 00:34:22;;;;;;;0.80;0.80;;;10.40;99.90;10.90;102217.00;;;;5050423;28;20226;-69
2022/09/22 00:36:57;;;;;;;0.60;0.60;;;10.20;99.90;10.90;102228.00;;;;5050967;28;20205;-69
2022/09/22 00:39:34;;;;;;;0.60;0.60;;;10.20;99.90;10.70;102228.00;;;;5035160;28;20191;-69
2022/09/22 00:42:08;;;;;;;0.50;0.50;;;10.20;99.90;10.90;102223.00;;;;5050308;28;20670;-69
2022/09/22 00:44:41;;;;;;;0.70;0.70;;;10.20;99.90;11.30;102224.00;;;;5033865;28;20220;-69
2022/09/22 00:47:28;;;;;;;1.00;1.00;;;10.40;99.90;11.10;102228.00;;;;5033641;28;20188;-69
2022/09/22 00:50:21;;;;;;;0.60;0.60;;;10.50;99.90;10.90;102213.00;;;;5050396;28;20190;-69
2022/09/22 00:53:01;;;;;;;0.73;0.73;;;10.40;99.90;11.00;102229.00;;;;5050191;28;20275;-69
2022/09/22 00:55:45;;;;;;;0.60;0.60;;;10.40;99.90;10.90;102210.00;;;;5049629;28;20313;-69
2022/09/22 00:58:30;;;;;;;0.57;0.57;;;10.30;99.90;10.90;102193.00;;;;5050093;28;20241;-69
2022/09/22 01:00:59;;;;;;;0.50;0.50;;;10.30;99.90;11.20;102215.00;;;;5033318;28;20194;-69
2022/09/22 01:03:36;;;;;;;0.70;0.70;;;10.40;99.90;11.50;102207.00;;;;5034445;28;20203;-69
2022/09/22 01:06:12;;;;;;;0.60;0.60;;;10.60;99.90;11.40;102212.00;;;;5049877;28;20176;-69
2022/09/22 01:08:47;;;;;;;0.60;0.60;;;10.60;99.90;11.50;102191.00;;;;5049953;28;20202;-69
2022/09/22 01:11:22;;;;;;;0.80;0.80;;;10.70;99.90;11.50;102192.00;;;;5033223;28;20247;-69
2022/09/22 01:14:39;;;;;;;0.50;0.50;;;10.60;99.90;11.20;102195.00;;;;5049349;28;20182;-69
2022/09/22 01:17:26;;;;;;;0.60;0.60;;;10.60;99.90;11.00;102198.00;;;;5034463;28;20179;-69
2022/09/22 01:20:40;;;;;;;0.97;0.97;;;10.50;99.90;11.20;102190.00;;;;5034486;28;20647;-69
2022/09/22 01:23:39;;;;;;;0.50;0.50;;;10.40;99.90;11.10;102195.00;;;;5033738;28;20226;-69
2022/09/22 01:26:45;;;;;;;0.60;0.60;;;10.50;99.90;11.40;102181.00;;;;5049752;28;20190;-69
2022/09/22 01:29:52;;;;;;;0.50;0.50;;;10.50;99.90;11.70;102193.00;;;;5033944;28;20180;-68
2022/09/22 01:33:07;;;;;;;0.60;0.60;;;10.60;99.90;12.00;102182.00;;;;5033837;28;20559;-68
2022/09/22 01:36:04;;;;;;;0.50;0.50;;;10.90;99.90;11.60;102191.00;;;;5033002;28;20199;-69
2022/09/22 01:39:00;;;;;;;0.60;0.60;;;10.80;99.90;11.70;102191.00;;;;5049341;28;20199;-69
2022/09/22 01:41:52;;;;;;;0.60;0.60;;;10.80;99.90;11.70;102145.00;;;;5049303;28;20290;-69
2022/09/22 01:44:34;;;;;;;0.50;0.50;;;10.90;99.90;11.40;102112.00;;;;5033566;28;20177;-69
2022/09/22 01:47:23;;;;;;;0.50;0.50;;;10.70;99.90;11.50;102184.00;;;;5032693;28;20183;-69
2022/09/22 01:50:17;;;;;;;0.60;0.60;;;10.70;99.90;11.50;102160.00;;;;5049162;28;20658;-69
2022/09/22 01:52:59;;;;;;;0.70;0.70;;;10.70;99.90;11.70;102163.00;;;;5032523;28;20178;-69
2022/09/22 01:55:39;;;;;;;0.60;0.60;;;10.70;99.90;11.60;102168.00;;;;5032325;28;20190;-68
2022/09/22 01:58:39;;;;;;;0.60;0.60;;;10.80;99.90;11.70;102163.00;;;;5049075;28;20617;-69
2022/09/22 02:01:32;;;;;;;0.50;0.50;;;10.80;99.90;11.70;102156.00;;;;5048797;28;20182;-69
2022/09/22 02:04:42;;;;;;;1.17;1.17;;;10.80;99.90;12.00;102166.00;;;;5048808;28;20194;-69
2022/09/22 02:07:25;;;;;;;0.60;0.60;;;11.00;99.90;11.80;102149.00;;;;5048664;28;20175;-69
2022/09/22 02:09:57;;;;;;;0.60;0.60;;;11.10;99.90;11.20;102151.00;;;;5048826;28;20189;-69
2022/09/22 02:12:28;;;;;;;0.60;0.60;;;10.80;99.90;11.00;102144.00;;;;5048297;28;20187;-68
2022/09/22 02:15:03;;;;;;;0.60;0.60;;;10.50;99.90;10.70;102135.00;;;;5031860;28;20197;-68
2022/09/22 02:17:35;;;;;;;5.90;3.13;;;10.30;99.90;10.90;102147.00;;;;5048536;28;20186;-69
2022/09/22 02:20:05;;;;;;;0.60;0.60;;;10.20;99.90;11.10;102144.00;;;;5048624;28;20647;-69
2022/09/22 02:22:42;;;;;;;0.70;0.70;;;10.20;99.90;11.00;102149.00;;;;5033157;28;20203;-69
2022/09/22 02:25:13;;;;;;;0.60;0.60;;;10.20;99.90;10.80;102139.00;;;;5048387;28;20179;-69
2022/09/22 02:27:47;;;;;;;0.57;0.57;;;10.20;99.90;11.00;102095.00;;;;5032060;28;20562;-69
2022/09/22 02:30:17;;;;;;;0.57;0.57;;;10.20;99.90;11.00;102129.00;;;;5031765;28;20179;-69
2022/09/22 02:32:54;;;;;;;0.50;0.50;;;10.20;99.90;11.00;102069.00;;;;5048255;28;20196;-69
2022/09/22 02:35:22;;;;;;;0.50;0.50;;;10.30;99.90;11.20;102136.00;;;;5048276;28;20254;-68
2022/09/22 02:38:25;;;;;;;0.50;0.50;;;10.30;99.90;11.10;102132.00;;;;5048910;28;20180;-69
2022/09/22 02:41:20;;;;;;;0.60;0.60;;;10.40;99.90;11.30;102122.00;;;;5031802;28;20216;-69
2022/09/22 02:44:20;;;;;;;1.60;1.50;;;10.40;99.90;11.20;102065.00;;;;5048322;28;20535;-69
2022/09/22 02:47:03;;;;;;;0.53;0.53;;;10.40;99.90;11.30;102119.00;;;;5048463;28;20523;-69
2022/09/22 02:49:34;;;;;;;1.07;1.07;;;10.50;99.90;11.20;102112.00;;;;5048565;28;20182;-69
2022/09/22 02:52:13;;;;;;;0.60;0.60;;;10.50;99.90;11.10;102132.00;;;;5048179;28;20183;-69
2022/09/22 02:54:49;;;;;;;0.50;0.50;;;10.40;99.90;11.20;102125.00;;;;5047991;28;20182;-68
2022/09/22 02:57:23;;;;;;;0.60;0.60;;;10.40;99.90;11.20;102118.00;;;;5048120;28;20188;-69
2022/09/22 03:00:00;;;;;;;0.50;0.50;;;10.40;99.90;11.20;102133.00;;;;5032967;28;20175;-69
2022/09/22 03:02:29;;;;;;;0.80;0.80;;;10.40;99.90;11.00;102107.00;;;;5048264;28;20214;-69
2022/09/22 03:05:06;;;;;;;0.60;0.60;;;10.40;99.90;11.20;102107.00;;;;5048085;28;20258;-69
2022/09/22 03:07:40;;;;;;;0.60;0.60;;;10.40;99.90;11.20;102125.00;;;;5048668;28;20265;-69
2022/09/22 03:10:07;;;;;;;0.40;0.40;;;10.40;99.90;11.20;102116.00;;;;5031734;28;20203;-69
2022/09/22 03:12:41;;;;;;;0.50;0.50;;;10.40;99.90;11.20;102109.00;;;;5032543;28;20273;-70
2022/09/22 03:15:16;;;;;;;0.50;0.50;;;10.30;99.90;11.20;102106.00;;;;5047925;28;20184;-69
2022/09/22 03:17:47;;;;;;;0.60;0.60;;;10.40;99.90;11.40;102095.00;;;;5032770;28;20185;-69
2022/09/22 03:20:19;;;;;;;0.50;0.50;;;10.40;99.90;11.40;102111.00;;;;5036261;28;20191;-69
2022/09/22 03:22:56;;;;;;;0.50;0.50;;;10.50;99.90;11.50;102094.00;;;;5035351;28;20198;-69
2022/09/22 03:25:27;;;;;;;1.97;1.77;;;10.60;99.90;11.20;102098.00;;;;5051729;28;20587;-69
2022/09/22 03:27:53;;;;;;;0.50;0.50;;;10.50;99.90;11.00;102116.00;;;;5051927;28;20568;-68
2022/09/22 03:30:25;;;;;;;0.47;0.47;;;10.30;99.90;11.00;102118.00;;;;5051971;28;20236;-69
2022/09/22 03:32:58;;;;;;;0.50;0.50;;;10.20;99.90;11.20;102089.00;;;;5051342;28;20250;-69
2022/09/22 03:35:36;;;;;;;0.50;0.50;;;10.20;99.90;11.20;102098.00;;;;5036645;28;20182;-68
2022/09/22 03:38:09;;;;;;;0.50;0.50;;;10.30;99.90;11.00;102093.00;;;;5051782;28;20276;-69
2022/09/22 03:40:50;;;;;;;0.50;0.50;;;10.20;99.90;11.10;102097.00;;;;5051002;28;20183;-69
2022/09/22 03:43:22;;;;;;;0.50;0.50;;;10.20;99.90;10.90;102102.00;;;;5036138;28;20570;-69
2022/09/22 03:45:58;;;;;;;0.50;0.50;;;10.10;99.90;10.90;102093.00;;;;5051354;28;20261;-69
2022/09/22 03:48:33;;;;;;;0.50;0.50;;;10.10;99.90;10.70;102102.00;;;;5035198;28;20179;-69
2022/09/22 03:51:02;;;;;;;0.60;0.60;;;10.00;99.90;10.70;102079.00;;;;5036231;28;20595;-69
2022/09/22 03:53:34;;;;;;;10.03;9.30;;;9.90;99.90;10.60;102094.00;;;;5034735;28;20234;-69
2022/09/22 03:56:19;;;;;;;0.60;0.60;;;9.80;99.90;10.90;102035.00;;;;5050951;28;20191;-69
2022/09/22 03:58:50;;;;;;;0.50;0.50;;;10.00;99.90;10.70;102096.00;;;;5051486;28;20214;-69
2022/09/22 04:01:22;;;;;;;0.60;0.60;;;9.90;99.90;10.60;102007.00;;;;5035754;28;20202;-71
2022/09/22 04:03:53;;;;;;;0.60;0.60;;;9.80;99.90;10.60;102083.00;;;;5050791;28;20184;-69
2022/09/22 04:06:23;;;;;;;0.63;0.63;;;9.90;99.90;10.70;102077.00;;;;5051104;28;20179;-69
2022/09/22 04:08:55;;;;;;;0.50;0.50;;;10.00;99.90;10.60;102082.00;;;;5035449;28;20210;-69
2022/09/22 04:11:32;;;;;;;0.90;0.90;;;9.90;99.90;10.40;102084.00;;;;5050527;28;20172;-69
2022/09/22 04:14:06;;;;;;;0.70;0.70;;;9.80;99.90;10.90;102083.00;;;;5034480;28;20228;-69
2022/09/22 04:16:44;;;;;;;0.80;0.80;;;10.00;99.90;10.40;102071.00;;;;5050599;28;20526;-68
2022/09/22 04:19:15;;;;;;;0.70;0.70;;;9.90;99.90;10.20;102086.00;;;;5050735;28;20229;-69
2022/09/22 04:21:52;;;;;;;0.70;0.70;;;9.60;99.90;10.30;102070.00;;;;5034266;28;20664;-69
2022/09/22 04:24:24;;;;;;;0.90;0.90;;;9.60;99.90;10.20;102060.00;;;;5050684;28;20187;-69
2022/09/22 04:27:00;;;;;;;0.80;0.80;;;9.60;99.90;10.00;102082.00;;;;5050433;28;20262;-69
2022/09/22 04:29:32;;;;;;;0.60;0.60;;;9.40;99.90;10.40;102080.00;;;;5034250;28;20205;-68
2022/09/22 04:32:03;;;;;;;0.60;0.60;;;9.60;99.90;10.30;102077.00;;;;5049075;28;20252;-68
2022/09/22 04:34:34;;;;;;;0.70;0.70;;;9.50;99.90;10.50;102083.00;;;;5050883;28;20175;-69
2022/09/22 04:37:12;;;;;;;0.97;0.97;;;9.60;99.90;10.50;102084.00;;;;5035214;28;20257;-68
2022/09/22 04:39:49;;;;;;;0.90;0.90;;;9.70;99.90;10.50;102081.00;;;;5050170;28;20175;-68
2022/09/22 04:42:23;;;;;;;1.30;1.30;;;9.70;99.90;10.70;102084.00;;;;5033687;28;20363;-68
2022/09/22 04:44:49;;;;;;;0.90;0.90;;;9.80;99.90;10.60;102075.00;;;;5033878;28;20205;-68
2022/09/22 04:47:21;;;;;;;0.80;0.80;;;9.80;99.90;10.40;102057.00;;;;5034964;28;20179;-68
2022/09/22 04:49:52;;;;;;;0.80;0.80;;;9.80;99.90;10.30;102085.00;;;;5050388;28;20175;-68
2022/09/22 04:52:18;;;;;;;0.80;0.80;;;9.60;99.90;10.30;102077.00;;;;5050060;28;20233;-69
2022/09/22 04:54:52;;;;;;;0.90;0.90;;;9.50;99.90;10.20;102078.00;;;;5034799;28;20634;-69
2022/09/22 04:57:26;;;;;;;0.90;0.90;;;9.40;99.90;10.20;102072.00;;;;5034742;28;20625;-68
2022/09/22 04:59:55;;;;;;;0.80;0.80;;;9.40;99.90;10.20;102075.00;;;;5034539;28;20243;-68
2022/09/22 05:02:24;;;;;;;0.80;0.80;;;9.40;99.90;10.00;102056.00;;;;5033309;28;20577;-68
2022/09/22 05:05:05;;;;;;;0.80;0.80;;;9.30;99.90;10.00;102011.00;;;;5050034;28;20182;-68
2022/09/22 05:07:45;;;;;;;0.80;0.80;;;9.20;99.90;9.80;102081.00;;;;5049724;28;20178;-68
2022/09/22 05:10:25;;;;;;;0.80;0.80;;;9.10;99.90;9.80;102064.00;;;;5049879;28;20266;-68
2022/09/22 05:12:59;;;;;;;0.70;0.70;;;9.10;99.90;9.70;102065.00;;;;5034346;28;20186;-68
2022/09/22 05:15:31;;;;;;;0.70;0.70;;;9.00;99.90;9.70;102075.00;;;;5049663;28;20186;-68
2022/09/22 05:18:02;;;;;;;0.70;0.70;;;8.90;99.90;9.90;102062.00;;;;5033362;28;20179;-68
2022/09/22 05:20:34;;;;;;;0.60;0.60;;;9.00;99.90;9.80;102060.00;;;;5034627;28;20181;-68
2022/09/22 05:23:10;;;;;;;0.60;0.60;;;9.00;99.90;9.90;102065.00;;;;5032601;28;20218;-68
2022/09/22 05:25:39;;;;;;;0.60;0.60;;;9.10;99.90;10.00;102070.00;;;;5049502;28;20162;-68
2022/09/22 05:28:12;;;;;;;0.60;0.60;;;9.30;99.90;9.70;102076.00;;;;5049458;28;20174;-68
2022/09/22 05:30:44;;;;;;;0.70;0.70;;;9.10;99.90;9.40;102066.00;;;;5032999;28;20541;-68
2022/09/22 05:33:23;;;;;;;0.70;0.70;;;9.00;99.90;9.70;102070.00;;;;5029440;28;20201;-68
2022/09/22 05:35:54;;;;;;;0.77;0.77;;;9.00;99.90;9.80;102080.00;;;;5013078;28;20295;-69
2022/09/22 05:38:28;;;;;;;0.70;0.70;;;9.00;99.90;10.00;102084.00;;;;5029806;28;20175;-69
2022/09/22 05:41:00;;;;;;;0.80;0.80;;;9.20;99.90;9.90;102071.00;;;;5028896;28;20186;-69
2022/09/22 05:43:43;;;;;;;0.80;0.80;;;9.20;99.90;9.90;102084.00;;;;5028860;28;20200;-68
2022/09/22 05:46:20;;;;;;;2.40;2.30;;;9.20;99.90;10.00;102011.00;;;;5012958;28;20211;-69
2022/09/22 05:48:57;;;;;;;0.80;0.80;;;9.20;99.90;10.20;102078.00;;;;5029533;28;20168;-69
2022/09/22 05:51:28;;;;;;;2.30;2.20;;;9.30;99.90;10.20;102092.00;;;;5013883;28;20623;-69
2022/09/22 05:54:02;;;;;;;0.70;0.70;;;9.30;99.90;10.30;102081.00;;;;5012627;28;20229;-68
2022/09/22 05:56:34;;;;;;;0.80;0.80;;;9.50;99.90;10.20;102066.00;;;;5029358;28;20183;-69
2022/09/22 05:59:02;;;;;;;1.60;1.50;;;9.50;99.90;10.30;102080.00;;;;5028816;28;20189;-68
2022/09/22 06:01:31;;;;;;;0.83;0.83;;;9.50;99.90;10.60;102094.00;;;;5029129;28;20655;-69
2022/09/22 06:04:06;;;;;;;0.90;0.90;;;9.60;99.90;10.70;102081.00;;;;5028672;28;20221;-69
2022/09/22 06:06:40;;;;;;;0.90;0.90;;;9.80;99.90;10.80;102084.00;;;;5012235;28;20222;-68
2022/09/22 06:09:12;;;;;;;0.90;0.90;;;9.90;99.90;10.70;102091.00;;;;5028271;28;20175;-69
2022/09/22 06:11:41;;;;;;;0.80;0.80;;;9.90;99.90;10.80;102087.00;;;;5028700;28;20172;-69
2022/09/22 06:14:09;;;;;;;0.90;0.90;;;9.90;99.90;10.60;102094.00;;;;5011810;28;20201;-69
2022/09/22 06:16:41;;;;;;;0.80;0.80;;;9.90;99.90;10.30;102063.00;;;;5029095;28;20181;-68
2022/09/22 06:19:13;;;;;;;0.70;0.70;;;9.80;99.90;10.50;102084.00;;;;5012423;28;20194;-68
2022/09/22 06:21:47;;;;;;;0.77;0.77;;;9.80;99.90;10.70;102087.00;;;;5028742;28;20226;-69
2022/09/22 06:24:15;;;;;;;0.80;0.80;;;10.00;99.90;10.70;102075.00;;;;5012055;28;20546;-68
2022/09/22 06:26:50;;;;;;;0.90;0.90;;;10.10;99.90;11.10;102086.00;;;;5028678;28;20636;-69
2022/09/22 06:29:22;;;;;;;2.60;2.50;;;10.30;99.90;11.20;102094.00;;;;5012246;28;20179;-68
2022/09/22 06:31:53;;;;;;;0.70;0.70;;;10.40;99.90;11.10;102094.00;;;;5011710;28;20207;-69
2022/09/22 06:34:32;;;;;;;0.60;0.60;;;10.50;99.90;11.30;102092.00;;;;5011694;28;20179;-68
2022/09/22 06:37:07;;;;;;;0.90;0.90;;;10.50;99.90;11.50;102076.00;;;;5013395;28;20185;-68
2022/09/22 06:39:53;;;;;;;0.50;0.50;;;10.80;99.90;12.00;102095.00;;;;5028501;28;20666;-68
2022/09/22 06:42:24;;;;;;;0.67;0.67;;;11.10;99.90;12.50;102079.00;;;;5013407;28;20567;-69
2022/09/22 06:44:52;;;;;;;0.60;0.60;;;11.60;99.90;12.80;102079.00;;;;5028483;28;20214;-69
2022/09/22 06:47:24;;;;;;;0.60;0.60;;;12.00;99.90;12.70;102088.00;;;;5012057;28;20183;-69
2022/09/22 06:50:01;;;;;;;3.60;1.97;;;12.10;99.90;13.40;102096.00;;;;5011922;28;20522;-69
2022/09/22 06:52:41;;;;;;;2.97;2.30;;;12.50;99.90;14.40;102080.00;;;;5012218;28;20643;-69
2022/09/22 06:55:19;;;;;;;0.60;0.60;;;13.10;99.90;14.90;102108.00;;;;5015884;28;20186;-68
2022/09/22 06:58:01;;;;;;;0.80;0.80;;;13.80;99.90;15.90;102109.00;;;;5031917;28;20184;-68
2022/09/22 07:00:42;;;;;;;0.80;0.80;;;14.60;99.90;14.20;102117.00;;;;5015983;28;20179;-69
2022/09/22 07:03:29;;;;;;;0.30;0.30;;;14.10;99.90;16.10;102118.00;;;;5032363;28;20221;-69
2022/09/22 07:06:03;;;;;;;0.83;0.83;;;14.80;99.90;17.40;102140.00;;;;5015485;28;20186;-72
2022/09/22 07:08:41;;;;;;;0.30;0.30;;;15.80;99.90;16.70;102152.00;;;;5017245;28;20161;-69
2022/09/22 07:11:10;;;;;;;1.00;1.00;;;16.10;99.90;18.50;102182.00;;;;5017284;28;20171;-70
2022/09/22 07:13:45;;;;;;;0.93;0.93;;;17.10;99.90;18.30;102182.00;;;;5015856;28;20167;-68
2022/09/22 07:16:21;;;;;;;1.77;1.67;;;17.10;99.90;18.90;102193.00;;;;5016866;28;20187;-69
2022/09/22 07:18:57;;;;;;;0.30;0.30;;;17.50;99.90;17.80;102189.00;;;;5017076;28;20619;-69
2022/09/22 07:21:36;;;;;;;0.40;0.40;;;17.30;99.90;18.10;102187.00;;;;5031610;28;20188;-69
2022/09/22 07:24:13;;;;;;;1.48;1.38;;;17.30;99.90;17.20;102181.00;;;;5031805;28;20187;-68
2022/09/22 07:26:50;;;;;;;0.28;0.28;;;16.70;99.90;17.70;102180.00;;;;5031593;28;20182;-67
2022/09/22 07:29:21;;;;;;;0.68;0.68;;;16.70;99.90;16.90;102173.00;;;;5031901;28;20179;-68
2022/09/22 07:32:08;;;;;;;2.88;1.00;;;16.60;99.90;16.70;102168.00;;;;5014502;28;20254;-68
2022/09/22 07:34:55;;;;;;;0.20;0.20;;;16.30;99.90;17.90;102175.00;;;;5002169;28;20622;-68
2022/09/22 07:37:34;;;;;;;0.20;0.20;;;16.60;99.90;19.50;102212.00;;;;5015144;28;20191;-68
2022/09/22 07:40:23;;;;;;;0.20;0.20;;;17.70;99.90;18.80;102202.00;;;;5016560;28;20187;-67
2022/09/22 07:42:54;;;;;;;0.30;0.30;;;17.80;99.90;18.80;102194.00;;;;5031609;28;20730;-68
2022/09/22 07:45:26;;;;;;;0.20;0.20;;;17.60;99.90;18.20;102199.00;;;;5016509;28;20589;-68
2022/09/22 07:50:59;;;;;;;0.10;0.10;;;18.10;99.90;19.60;102212.00;;;;5029232;28;20242;-68
2022/09/22 07:53:34;;;;;;;0.30;0.30;;;18.30;99.90;20.70;102222.00;;;;5014839;28;20183;-68
2022/09/22 07:56:13;;;;;;;2.65;2.25;;;19.10;99.90;21.60;102226.00;;;;5031109;28;20274;-68
2022/09/22 07:58:47;;;;;;;0.17;0.17;;;19.80;99.90;20.70;102228.00;;;;5014987;28;20195;-68
2022/09/22 08:01:30;;;;;;;0.45;0.45;;;19.80;99.90;21.10;102223.00;;;;5014672;28;20241;-69
2022/09/22 08:04:07;;;;;;;0.20;0.20;;;19.80;99.90;20.20;102213.00;;;;5014279;28;20195;-69
2022/09/22 08:06:39;;;;;;;0.82;0.73;;;19.70;99.90;20.00;102223.00;;;;5030087;28;20183;-68
2022/09/22 08:09:17;;;;;;;0.10;0.10;;;19.30;99.90;21.40;102222.00;;;;5031352;28;20184;-69
2022/09/22 08:11:56;;;;;;;0.47;0.38;;;19.50;99.90;20.50;102224.00;;;;5031180;28;20194;-69
2022/09/22 08:14:30;;;;;;;7.38;1.95;;;19.60;99.90;20.60;102223.00;;;;5030950;28;20620;-69
2022/09/22 08:17:02;;;;;;;0.38;0.38;;;19.70;99.90;19.90;102235.00;;;;5015388;28;20221;-69
2022/09/22 08:19:35;;;;;;;0.22;0.22;;;19.30;99.90;19.40;102189.00;;;;5031204;28;20285;-68
2022/09/22 08:22:14;;;;;;;0.50;0.50;;;19.00;99.90;18.30;102221.00;;;;5015306;28;20677;-68
2022/09/22 08:24:52;;;;;;;0.63;0.63;;;18.30;99.90;19.60;102222.00;;;;5015766;28;20183;-68
2022/09/22 08:27:28;;;;;;;0.90;0.90;;;18.30;99.90;20.50;102192.00;;;;5030869;28;20179;-69
2022/09/22 08:29:57;;;;;;;8.18;1.15;;;19.20;99.90;18.90;102214.00;;;;5030474;28;20199;-68
2022/09/22 08:32:40;;;;;;;0.68;0.68;;;18.80;99.90;18.30;102224.00;;;;5015670;28;20207;-68
2022/09/22 08:35:21;;;;;;;1.13;1.13;;;18.10;99.90;18.00;102207.00;;;;5029988;28;20230;-68
2022/09/22 08:37:56;;;;;;;0.82;0.82;;;17.70;99.90;19.40;102222.00;;;;5030822;28;20192;-68
2022/09/22 08:40:34;;;;;;;0.63;0.63;;;17.80;99.90;19.60;102211.00;;;;5015775;28;20206;-68
2022/09/22 08:43:14;;;;;;;0.57;0.57;;;18.70;99.90;18.60;102226.00;;;;5030312;28;20257;-69
2022/09/22 08:45:45;;;;;;;0.55;0.55;;;18.30;99.90;17.80;102232.00;;;;5015011;28;20186;-68
2022/09/22 08:51:54;;;;;;;1.20;0.63;;;17.80;99.90;20.70;102206.00;;;;5015376;28;20258;-69
2022/09/22 08:54:41;;;;;;;0.85;0.30;;;18.80;99.90;21.20;102205.00;;;;4998994;28;20290;-69
2022/09/22 08:57:29;;;;;;;2.10;2.00;;;19.90;99.90;20.00;102231.00;;;;5030509;28;20183;-69
2022/09/22 09:00:17;;;;;;;0.40;0.40;;;19.50;99.90;20.80;102207.00;;;;5030523;28;20180;-68
2022/09/22 09:03:05;;;;;;;0.40;0.40;;;20.00;99.90;20.30;102230.00;;;;5013593;28;20316;-68
2022/09/22 09:06:54;;;;;;;0.10;0.10;;;19.70;99.90;21.00;102221.00;;;;5015427;28;20171;-68
2022/09/22 09:09:31;;;;;;;0.35;0.35;;;19.90;99.90;20.90;102219.00;;;;4994463;28;20203;-69
2022/09/22 09:12:27;;;;;;;0.10;0.10;;;20.40;99.90;19.50;102242.00;;;;5014858;28;20265;-68
2022/09/22 09:15:46;;;;;;;0.10;0.10;;;19.40;99.90;19.30;102251.00;;;;5028303;28;20583;-68
2022/09/22 09:18:41;;;;;;;0.63;0.63;;;18.80;99.90;19.50;102241.00;;;;5029624;28;20160;-69
2022/09/22 09:21:23;;;;;;;0.10;0.10;;;18.90;99.90;19.90;102239.00;;;;5013651;28;20194;-68
2022/09/22 09:24:09;;;;;;;0.35;0.35;;;19.00;99.90;19.60;102234.00;;;;5013818;28;20183;-68
2022/09/22 09:26:51;;;;;;;0.52;0.52;;;19.00;99.90;19.00;102234.00;;;;5029560;28;20257;-68
2022/09/22 09:29:34;;;;;;;0.10;0.10;;;18.80;99.90;19.30;102249.00;;;;5029506;28;20262;-68
2022/09/22 09:32:21;;;;;;;0.10;0.10;;;18.30;99.90;20.80;102233.00;;;;5029319;28;20290;-68
2022/09/22 09:34:58;;;;;;;0.20;0.20;;;19.30;99.90;21.90;102206.00;;;;5029532;28;20241;-69
2022/09/22 09:37:30;;;;;;;0.20;0.20;;;20.20;99.90;22.90;102201.00;;;;5029708;28;20262;-69
2022/09/22 09:40:21;;;;;;;0.13;0.13;;;21.30;99.90;20.20;102230.00;;;;5012923;28;20187;-69
2022/09/22 09:42:59;;;;;;;0.50;0.50;;;20.20;99.90;19.60;102242.00;;;;5012845;28;20258;-69
2022/09/22 09:46:13;;;;;;;0.10;0.10;;;19.50;99.90;21.10;102187.00;;;;5029540;28;20266;-69
2022/09/22 09:49:08;;;;;;;0.10;0.10;;;19.90;99.90;21.10;102234.00;;;;5029375;28;20215;-69
2022/09/22 09:51:43;;;;;;;0.22;0.22;;;20.00;99.90;22.50;102208.00;;;;5029627;28;20665;-69
2022/09/22 09:54:27;;;;;;;0.73;0.73;;;21.00;99.90;22.10;102222.00;;;;5012731;28;20183;-69
2022/09/22 09:57:18;;;;;;;0.10;0.10;;;21.10;99.90;22.90;102205.00;;;;5027864;28;20176;-69
2022/09/22 10:00:30;;;;;;;0.10;0.10;;;21.50;99.90;21.60;102221.00;;;;5012895;28;20187;-68
2022/09/22 10:03:14;;;;;;;0.10;0.10;;;21.00;99.90;23.30;102194.00;;;;5013683;28;20293;-69
2022/09/22 10:05:58;;;;;;;0.88;0.43;;;21.80;99.90;23.10;102203.00;;;;5029018;28;20189;-69
2022/09/22 10:08:54;;;;;;;0.10;0.10;;;21.80;99.90;24.10;102188.00;;;;5028278;28;20656;-69
2022/09/22 10:12:02;;;;;;;0.10;0.10;;;22.60;99.90;23.60;102184.00;;;;5012364;28;20178;-69
2022/09/22 10:14:56;;;;;;;0.10;0.10;;;22.80;99.90;23.00;102191.00;;;;5012375;28;20248;-69
2022/09/22 10:17:44;;;;;;;2.05;1.95;;;22.20;99.90;22.80;102203.00;;;;5012244;28;20549;-69
2022/09/22 10:33:35;;;;;;;0.15;0.15;;;20.80;99.90;20.90;102238.00;;;;5070525;28;20593;-69
2022/09/22 10:36:12;;;;;;;0.15;0.15;;;20.70;99.90;21.10;102238.00;;;;5050501;28;20646;-68
2022/09/22 10:38:51;;;;;;;0.10;0.10;;;20.40;99.90;22.00;102178.00;;;;5065923;28;20181;-68
2022/09/22 10:41:40;;;;;;;0.13;0.13;;;20.90;99.90;21.00;102172.00;;;;5048638;28;20534;-68
2022/09/22 10:44:39;;;;;;;0.70;0.25;;;20.60;99.90;21.10;102238.00;;;;5050480;28;20170;-69
2022/09/22 10:47:42;;;;;;;0.10;0.10;;;20.00;99.90;23.00;102210.00;;;;5033073;28;20182;-69
2022/09/22 10:50:30;;;;;;;0.88;0.88;;;21.20;99.90;24.30;102198.00;;;;5050137;28;20260;-69
2022/09/22 10:53:52;;;;;;;0.10;0.10;;;22.60;99.90;23.50;102191.00;;;;5050216;28;20244;-69
2022/09/22 10:56:43;;;;;;;0.10;0.10;;;22.40;99.90;22.80;102176.00;;;;5050001;28;20182;-69
2022/09/22 10:59:33;;;;;;;0.30;0.30;;;22.30;99.90;22.70;102145.00;;;;5048948;28;20200;-69
2022/09/22 11:02:28;;;;;;;0.22;0.22;;;21.70;99.90;23.90;102150.00;;;;5049801;28;20195;-69
2022/09/22 11:12:15;;;;;;;0.10;0.10;;;22.50;99.90;21.90;102167.00;;;;5048925;28;20198;-68
2022/09/22 11:14:54;;;;;;;0.43;0.43;;;22.10;99.90;20.50;102163.00;;;;5049939;28;20244;-68
2022/09/22 11:18:04;;;;;;;0.10;0.10;;;20.90;99.90;23.00;102160.00;;;;5049638;28;20185;-69
2022/09/22 11:21:39;;;;;;;1.95;1.85;;;21.10;99.90;23.50;102147.00;;;;5049694;28;20179;-69
2022/09/22 11:25:05;;;;;;;0.15;0.15;;;22.20;99.90;22.50;102158.00;;;;5048445;28;20213;-69
2022/09/22 11:28:02;;;;;;;0.43;0.40;;;21.80;99.90;23.20;102144.00;;;;5049563;28;20174;-70
2022/09/22 11:31:04;;;;;;;0.40;0.40;;;22.10;99.90;22.90;102136.00;;;;5049745;28;20638;-69
2022/09/22 11:34:05;;;;;;;0.10;0.10;;;22.30;99.90;23.00;102141.00;;;;5036942;28;20206;-69
2022/09/22 11:37:24;;;;;;;0.15;0.15;;;22.20;99.90;23.00;102133.00;;;;5048180;28;20236;-69
2022/09/22 11:40:32;;;;;;;0.15;0.15;;;22.40;99.90;23.50;102151.00;;;;5049001;28;20558;-69
2022/09/22 11:43:42;;;;;;;0.73;0.73;;;22.40;99.90;22.90;102137.00;;;;5045478;28;20199;-69
2022/09/22 11:46:54;;;;;;;0.10;0.10;;;22.30;99.90;23.00;102127.00;;;;5036378;28;20662;-69
2022/09/22 11:49:34;;;;;;;0.10;0.10;;;22.10;99.90;23.40;102076.00;;;;5035898;28;20182;-69
2022/09/22 11:52:20;;;;;;;0.40;0.30;;;22.20;99.90;22.50;102120.00;;;;5035743;28;20202;-69
2022/09/22 11:55:12;;;;;;;0.10;0.10;;;21.90;99.90;22.60;102113.00;;;;5035588;28;20221;-69
2022/09/22 11:57:50;;;;;;;0.57;0.30;;;21.90;99.90;22.80;102102.00;;;;5035738;28;20555;-69
2022/09/22 12:00:28;;;;;;;0.20;0.20;;;22.20;99.90;22.80;102074.00;;;;5018596;28;20638;-69
2022/09/22 12:03:17;;;;;;;0.40;0.40;;;22.10;99.90;22.70;102104.00;;;;5034606;28;20635;-69
2022/09/22 12:06:15;;;;;;;0.10;0.10;;;21.80;99.90;22.80;102090.00;;;;5034588;28;20214;-69
2022/09/22 12:09:34;;;;;;;0.10;0.10;;;22.00;99.90;23.50;102040.00;;;;5034242;28;20175;-69
2022/09/22 12:12:18;;;;;;;0.75;0.75;;;22.10;99.90;22.10;102038.00;;;;5013199;28;20252;-69
2022/09/22 12:15:00;;;;;;;1.52;1.10;;;21.90;99.90;22.90;102078.00;;;;5013712;28;20748;-69
2022/09/22 12:17:43;;;;;;;0.20;0.20;;;22.00;99.90;22.90;102085.00;;;;5034184;28;20190;-69